4AL4 weather

Froberg Heliport
Hartselle, Alabama, United States

Public forecast

Using degrees Fahrenheit for public forecast. Weather courtesy of forecast.io.

Closest aviation weather report (METAR) to Froberg Heliport

Closest report is Cullman Regional Airport-Folsom Field, 9.9 nm (18.4 km) SSE. Retrieved 2019/10/17 23:35 UTC (18 minutes ago):

KCMD 172335Z AUTO 00000KT 10SM CLR 11/04 A3002 RMK AO2 T01070035

Closest aviation forecast (TAF) to Froberg Heliport

Closest forecast is Huntsville International Carl T Jones Field, 14.4 nm (26.6 km) NNE. Retrieved 2019/10/17 18:22 UTC (6 hours ago):

TAF KHSV 171720Z 1718/1818 03005KT P6SM SKC